ADDS METAR Data INFO
IDs: Format: Raw Decoded Include TAF

Data at: 0836 UTC 21 Oct 2017

KDKX 210815Z AUTO 00000KT M1/4SM FG OVC002 10/10 A3024 RMK A01
KDKX 210755Z AUTO 00000KT 2 1/2SM BR BKN002 10/10 A3024 RMK A01
KDKX 210735Z AUTO 00000KT 3/4SM BR BKN002 10/10 A3024 RMK A01 VIS 1/4V2
KDKX 210715Z AUTO 11003KT 5SM BR SCT002 10/10 A3024 RMK A01
KDKX 210655Z AUTO 00000KT 1/4SM FG VV002 10/10 A3023 RMK A01
KDKX 210635Z AUTO 00000KT 5SM BR FEW002 11/11 A3023 RMK A01
KDKX 210615Z AUTO 00000KT 1/4SM FG BKN002 10/10 A3024 RMK A01
KDKX 210555Z AUTO 00000KT 1/2SM FG VV005 11/11 A3023 RMK A01 VIS 1/4V3
KDKX 210535Z AUTO 00000KT 1SM BR CLR 11/11 A3023 RMK A01
KDKX 210515Z AUTO 00000KT 1/2SM FG VV005 10/10 A3023 RMK A01
KDKX 210455Z AUTO 00000KT 3SM BR CLR 11/11 A3023 RMK A01
KDKX 210435Z AUTO 00000KT 10SM CLR 10/10 A3023 RMK A01
KDKX 210415Z AUTO 00000KT 9SM CLR 12/12 A3023 RMK A01
KDKX 210355Z AUTO 00000KT 11/11 A3024 RMK A01
KDKX 210335Z AUTO 00000KT 7SM CLR 11/11 A3024 RMK A01
KDKX 210315Z AUTO 00000KT 7SM CLR 11/11 A3023 RMK A01
KDKX 210255Z AUTO 00000KT 10SM CLR 12/12 A3023 RMK A01
KDKX 210235Z AUTO 00000KT 10SM CLR 12/12 A3023 RMK A01
KDKX 210215Z AUTO 00000KT 10SM CLR 12/12 A3023 RMK A01
KDKX 210155Z AUTO 00000KT 10SM CLR 13/12 A3022 RMK A01
KDKX 210135Z AUTO 00000KT 10SM CLR 13/12 A3022 RMK A01
KDKX 210115Z AUTO 00000KT 10SM CLR 13/12 A3022 RMK A01
KDKX 210055Z AUTO 00000KT 10SM CLR 14/12 A3021 RMK A01
KDKX 210035Z AUTO 00000KT 10SM CLR 14/13 A3021 RMK A01
KDKX 210015Z AUTO 00000KT 10SM CLR 15/13 A3021 RMK A01
KDKX 202355Z AUTO 00000KT 10SM CLR 16/13 A3021 RMK A01
KDKX 202335Z AUTO 00000KT 10SM CLR 16/13 A3020 RMK A01
KDKX 202315Z AUTO 00000KT 10SM CLR 17/13 A3020 RMK A01
KDKX 202255Z AUTO 00000KT 10SM CLR 18/11 A3019 RMK A01
KDKX 202235Z AUTO 00000KT 10SM CLR 19/13 A3019 RMK A01
KDKX 202215Z AUTO 00000KT 10SM CLR 21/13 A3019 RMK A01
KDKX 202155Z AUTO 00000KT 10SM CLR 23/12 A3019 RMK A01
KDKX 202135Z AUTO 00000KT 10SM CLR 24/11 A3019 RMK A01
KDKX 202115Z AUTO 00000KT 10SM CLR 25/10 A3019 RMK A01
KDKX 202055Z AUTO 00000KT 10SM CLR 25/09 A3020 RMK A01
KDKX 202035Z AUTO 00000KT 10SM CLR 25/09 A3020 RMK A01
KDKX 202015Z AUTO 00000KT 10SM CLR 26/08 A3021 RMK A01
KDKX 201955Z AUTO 13004KT 10SM CLR 25/08 A3022 RMK A01
KDKX 201935Z AUTO 00000KT 10SM CLR 25/08 A3022 RMK A01
KDKX 201915Z AUTO 00000KT 10SM CLR 24/09 A3023 RMK A01
KDKX 201855Z AUTO 00000KT 10SM CLR 24/09 A3024 RMK A01
KDKX 201835Z AUTO 00000KT 10SM CLR 24/11 A3025 RMK A01
KDKX 201815Z AUTO 10004KT 8SM CLR 23/11 A3025 RMK A01
KDKX 201755Z AUTO 00000KT 10SM CLR 23/11 A3026 RMK A01
KDKX 201735Z AUTO 00000KT 10SM CLR 22/11 A3028 RMK A01
KDKX 201715Z AUTO 00000KT 10SM CLR 21/11 A3029 RMK A01
KDKX 201655Z AUTO 00000KT 10SM CLR 21/11 A3030 RMK A01
KDKX 201635Z AUTO 11004KT 10SM CLR 20/11 A3031 RMK A01
KDKX 201615Z AUTO 00000KT 10SM CLR 19/12 A3032 RMK A01
KDKX 201555Z AUTO 00000KT 10SM CLR 18/12 A3033 RMK A01
KDKX 201535Z AUTO 00000KT 10SM CLR 17/11 A3034 RMK A01
KDKX 201515Z AUTO 00000KT 10SM CLR 16/11 A3035 RMK A01
KDKX 201455Z AUTO 11004KT 10SM CLR 15/12 A3035 RMK A01
KDKX 201435Z AUTO 15003KT 10SM CLR 12/12 A3036 RMK A01
KDKX 201415Z AUTO 00000KT 10SM CLR 11/11 A3036 RMK A01
KDKX 201355Z AUTO 13004KT 10SM FEW002 10/10 A3036 RMK A01
KDKX 201335Z AUTO 00000KT 3SM BR BKN002 09/09 A3036 RMK A01
KDKX 201315Z AUTO 00000KT M1/4SM FG OVC002 09/09 A3036 RMK A01
KDKX 201255Z AUTO 00000KT M1/4SM FG OVC002 08/08 A3035 RMK A01
KDKX 201235Z AUTO 00000KT M1/4SM FG OVC002 08/08 A3035 RMK A01
KDKX 201215Z AUTO 00000KT M1/4SM FG OVC002 07/07 A3034 RMK A01
KDKX 201155Z AUTO 00000KT M1/4SM FG OVC002 08/08 A3033 RMK A01
KDKX 201135Z AUTO 00000KT M1/4SM FG OVC002 07/07 A3033 RMK A01
KDKX 201115Z AUTO 00000KT M1/4SM FG OVC002 07/07 A3033 RMK A01
KDKX 201055Z AUTO 00000KT M1/4SM FG OVC002 07/07 A3032 RMK A01
KDKX 201035Z AUTO 00000KT M1/4SM FG OVC002 07/07 A3032 RMK A01
KDKX 201015Z AUTO 00000KT M1/4SM FG OVC002 08/08 A3031 RMK A01
KDKX 200955Z AUTO 00000KT M1/4SM FG OVC002 08/08 A3031 RMK A01
KDKX 200935Z AUTO 00000KT M1/4SM FG OVC002 08/08 A3030 RMK A01
KDKX 200915Z AUTO 00000KT M1/4SM FG OVC002 08/08 A3029 RMK A01
KDKX 200855Z AUTO 00000KT M1/4SM FG OVC002 08/08 A3029 RMK A01
KDKX 200835Z AUTO 00000KT M1/4SM FG OVC002 08/08 A3029 RMK A01
KDKX 200815Z AUTO 00000KT M1/4SM FG OVC002 08/08 A3029 RMK A01
KDKX 200755Z AUTO 00000KT M1/4SM FG OVC002 08/08 A3029 RMK A01
KDKX 200735Z AUTO 00000KT 1/2SM FG OVC002 08/08 A3029 RMK A01
KDKX 200715Z AUTO 00000KT 3/4SM BR BKN002 08/08 A3029 RMK A01 VIS 1/4V4
KDKX 200655Z AUTO 00000KT 3/4SM BR OVC002 09/09 A3029 RMK A01
KDKX 200635Z AUTO 00000KT 4SM BR SCT002 09/09 A3029 RMK A01
KDKX 200615Z AUTO 00000KT 2SM BR SCT002 08/08 A3029 RMK A01 VIS 3/4V5
KDKX 200555Z AUTO 00000KT 7SM SCT002 09/09 A3029 RMK A01
KDKX 200535Z AUTO 00000KT 2SM BR CLR 09/09 A3028 RMK A01 VIS 1 1/4V5
KDKX 200515Z AUTO 00000KT 6SM BR CLR 09/09 A3028 RMK A01
KDKX 200455Z AUTO 00000KT 1SM BR CLR 09/09 A3028 RMK A01
KDKX 200435Z AUTO 00000KT 1SM BR CLR 09/09 A3028 RMK A01 VIS 1/4V3
KDKX 200415Z AUTO 00000KT 7SM CLR 09/09 A3028 RMK A01
KDKX 200355Z AUTO 00000KT 10SM CLR 09/09 A3028 RMK A01
KDKX 200335Z AUTO 00000KT 10SM CLR 10/10 A3028 RMK A01
KDKX 200315Z AUTO 00000KT 10SM CLR 11/11 A3028 RMK A01
KDKX 200255Z AUTO 00000KT 10SM CLR 11/10 A3028 RMK A01
KDKX 200235Z AUTO 00000KT 10SM CLR 10/10 A3028 RMK A01
KDKX 200215Z AUTO 00000KT 10SM CLR 11/10 A3028 RMK A01
KDKX 200155Z AUTO 00000KT 10SM CLR 11/11 A3028 RMK A01
KDKX 200135Z AUTO 00000KT 10SM CLR 11/11 A3027 RMK A01
KDKX 200115Z AUTO 00000KT 10SM CLR 12/11 A3027 RMK A01
KDKX 200055Z AUTO 00000KT 10SM CLR 12/11 A3027 RMK A01
KDKX 200035Z AUTO 00000KT 10SM CLR 12/11 A3027 RMK A01
KDKX 200015Z AUTO 00000KT 10SM CLR 13/11 A3027 RMK A01
KDKX 192355Z AUTO 00000KT 10SM CLR 14/11 A3027 RMK A01
KDKX 192335Z AUTO 00000KT 10SM CLR 14/11 A3026 RMK A01
KDKX 192315Z AUTO 00000KT 10SM CLR 15/10 A3026 RMK A01
KDKX 192255Z AUTO 00000KT 10SM CLR 16/11 A3025 RMK A01
KDKX 192235Z AUTO 00000KT 10SM CLR 17/10 A3025 RMK A01
KDKX 192215Z AUTO 00000KT 10SM CLR 18/11 A3025 RMK A01
KDKX 192155Z AUTO 00000KT 10SM CLR 19/11 A3025 RMK A01
KDKX 192135Z AUTO 00000KT 10SM CLR 21/12 A3025 RMK A01
KDKX 192115Z AUTO 00000KT 10SM CLR 22/06 A3025 RMK A01
KDKX 192055Z AUTO 00000KT 10SM CLR 23/05 A3026 RMK A01